Terminal Aerodrome Forecast
Issued by NWS

Home | Current Version | Previous Version | Graphics & Text | Print | Product List | Glossary On
Versions: 1 2 3 4 5 6 7 8 9 10 11 12 13 14 15 16 17 18
000
FTUS43 KGRB 191700
TAFMTW
TAF
KMTW 191732Z 1918/2018 22012G18KT P6SM BKN120
     FM200100 22005KT P6SM SCT050 BKN090
     FM200900 29006KT P6SM BKN035 BKN080
     FM201300 32011KT P6SM BKN040=

USA.gov is the U.S. government's official web portal to all federal, state and local government web resources and services.